sensor_id;sensor_type;location;lat;lon;timestamp;temperature;humidity
17797;DHT22;55596;53.554;9.916;2022-08-19T00:00:18;18.80;99.90
17797;DHT22;55596;53.554;9.916;2022-08-19T00:02:45;18.40;99.90
17797;DHT22;55596;53.554;9.916;2022-08-19T00:05:14;18.30;99.90
17797;DHT22;55596;53.554;9.916;2022-08-19T00:07:41;21.30;99.90
17797;DHT22;55596;53.554;9.916;2022-08-19T00:10:11;18.50;99.90
17797;DHT22;55596;53.554;9.916;2022-08-19T00:12:38;18.50;99.90
17797;DHT22;55596;53.554;9.916;2022-08-19T00:15:07;18.50;99.90
17797;DHT22;55596;53.554;9.916;2022-08-19T00:17:41;18.60;99.90
17797;DHT22;55596;53.554;9.916;2022-08-19T00:20:10;18.60;99.90
17797;DHT22;55596;53.554;9.916;2022-08-19T00:22:38;18.60;99.90
17797;DHT22;55596;53.554;9.916;2022-08-19T00:25:07;18.50;99.90
17797;DHT22;55596;53.554;9.916;2022-08-19T00:27:34;18.80;99.90
17797;DHT22;55596;53.554;9.916;2022-08-19T00:30:02;18.70;99.90
17797;DHT22;55596;53.554;9.916;2022-08-19T00:32:29;18.80;99.90
17797;DHT22;55596;53.554;9.916;2022-08-19T00:34:58;18.80;99.90
17797;DHT22;55596;53.554;9.916;2022-08-19T00:37:25;18.90;99.90
17797;DHT22;55596;53.554;9.916;2022-08-19T00:39:52;19.10;99.90
17797;DHT22;55596;53.554;9.916;2022-08-19T00:42:21;18.80;99.90
17797;DHT22;55596;53.554;9.916;2022-08-19T00:44:50;18.50;99.90
17797;DHT22;55596;53.554;9.916;2022-08-19T00:47:17;19.00;99.90
17797;DHT22;55596;53.554;9.916;2022-08-19T00:49:47;18.90;99.90
17797;DHT22;55596;53.554;9.916;2022-08-19T00:52:21;19.10;99.90
17797;DHT22;55596;53.554;9.916;2022-08-19T00:54:50;19.10;99.90
17797;DHT22;55596;53.554;9.916;2022-08-19T00:57:22;19.00;99.90
17797;DHT22;55596;53.554;9.916;2022-08-19T00:59:52;19.00;99.90
17797;DHT22;55596;53.554;9.916;2022-08-19T01:02:20;19.00;99.90
17797;DHT22;55596;53.554;9.916;2022-08-19T01:04:47;18.90;99.90
17797;DHT22;55596;53.554;9.916;2022-08-19T01:07:14;18.90;99.90
17797;DHT22;55596;53.554;9.916;2022-08-19T01:09:42;18.80;99.90
17797;DHT22;55596;53.554;9.916;2022-08-19T01:12:09;18.90;99.90
17797;DHT22;55596;53.554;9.916;2022-08-19T01:14:37;18.90;99.90
17797;DHT22;55596;53.554;9.916;2022-08-19T01:17:05;20.20;99.90
17797;DHT22;55596;53.554;9.916;2022-08-19T01:19:35;19.00;99.90
17797;DHT22;55596;53.554;9.916;2022-08-19T01:22:06;18.90;99.90
17797;DHT22;55596;53.554;9.916;2022-08-19T01:24:36;18.90;99.90
17797;DHT22;55596;53.554;9.916;2022-08-19T01:27:04;19.00;99.90
17797;DHT22;55596;53.554;9.916;2022-08-19T01:29:31;16.80;99.90
17797;DHT22;55596;53.554;9.916;2022-08-19T01:31:58;18.90;99.90
17797;DHT22;55596;53.554;9.916;2022-08-19T01:34:25;19.00;99.90
17797;DHT22;55596;53.554;9.916;2022-08-19T01:36:52;19.00;99.90
17797;DHT22;55596;53.554;9.916;2022-08-19T01:39:23;18.90;99.90
17797;DHT22;55596;53.554;9.916;2022-08-19T01:41:51;18.90;99.90
17797;DHT22;55596;53.554;9.916;2022-08-19T01:44:19;19.00;99.90
17797;DHT22;55596;53.554;9.916;2022-08-19T01:46:50;18.90;99.90
17797;DHT22;55596;53.554;9.916;2022-08-19T01:49:19;19.00;99.90
17797;DHT22;55596;53.554;9.916;2022-08-19T01:51:47;18.90;99.90
17797;DHT22;55596;53.554;9.916;2022-08-19T01:54:16;18.90;99.90
17797;DHT22;55596;53.554;9.916;2022-08-19T01:56:43;18.80;99.90
17797;DHT22;55596;53.554;9.916;2022-08-19T01:59:14;18.90;99.90
17797;DHT22;55596;53.554;9.916;2022-08-19T02:01:42;18.80;99.90
17797;DHT22;55596;53.554;9.916;2022-08-19T02:04:09;18.70;99.90
17797;DHT22;55596;53.554;9.916;2022-08-19T02:06:37;18.60;99.90
17797;DHT22;55596;53.554;9.916;2022-08-19T02:09:05;18.80;99.90
17797;DHT22;55596;53.554;9.916;2022-08-19T02:11:35;18.80;99.90
17797;DHT22;55596;53.554;9.916;2022-08-19T02:14:04;18.80;99.90
17797;DHT22;55596;53.554;9.916;2022-08-19T02:16:33;18.80;99.90
17797;DHT22;55596;53.554;9.916;2022-08-19T02:19:01;18.70;99.90
17797;DHT22;55596;53.554;9.916;2022-08-19T02:21:29;18.70;99.90
17797;DHT22;55596;53.554;9.916;2022-08-19T02:23:56;18.70;99.90
17797;DHT22;55596;53.554;9.916;2022-08-19T02:26:23;18.70;99.90
17797;DHT22;55596;53.554;9.916;2022-08-19T02:28:52;18.70;99.90
17797;DHT22;55596;53.554;9.916;2022-08-19T02:31:22;18.70;99.90
17797;DHT22;55596;53.554;9.916;2022-08-19T02:33:51;18.70;99.90
17797;DHT22;55596;53.554;9.916;2022-08-19T02:36:19;18.70;99.90
17797;DHT22;55596;53.554;9.916;2022-08-19T02:38:46;18.60;99.90
17797;DHT22;55596;53.554;9.916;2022-08-19T02:41:13;18.60;99.90
17797;DHT22;55596;53.554;9.916;2022-08-19T02:43:41;18.60;99.90
17797;DHT22;55596;53.554;9.916;2022-08-19T02:46:12;18.50;99.90
17797;DHT22;55596;53.554;9.916;2022-08-19T02:48:39;18.60;99.90
17797;DHT22;55596;53.554;9.916;2022-08-19T02:51:07;18.60;99.90
17797;DHT22;55596;53.554;9.916;2022-08-19T02:53:34;18.60;99.90
17797;DHT22;55596;53.554;9.916;2022-08-19T02:56:01;17.70;99.90
17797;DHT22;55596;53.554;9.916;2022-08-19T02:58:32;18.60;99.90
17797;DHT22;55596;53.554;9.916;2022-08-19T03:00:59;18.60;99.90
17797;DHT22;55596;53.554;9.916;2022-08-19T03:03:26;18.60;99.90
17797;DHT22;55596;53.554;9.916;2022-08-19T03:06:03;18.50;99.90
17797;DHT22;55596;53.554;9.916;2022-08-19T03:08:31;18.50;99.90
17797;DHT22;55596;53.554;9.916;2022-08-19T03:10:58;18.50;99.90
17797;DHT22;55596;53.554;9.916;2022-08-19T03:13:25;18.40;99.90
17797;DHT22;55596;53.554;9.916;2022-08-19T03:15:52;18.40;99.90
17797;DHT22;55596;53.554;9.916;2022-08-19T03:18:19;18.50;99.90
17797;DHT22;55596;53.554;9.916;2022-08-19T03:20:48;18.30;99.90
17797;DHT22;55596;53.554;9.916;2022-08-19T03:23:16;18.20;99.90
17797;DHT22;55596;53.554;9.916;2022-08-19T03:25:46;18.30;99.90
17797;DHT22;55596;53.554;9.916;2022-08-19T03:28:14;18.30;99.90
17797;DHT22;55596;53.554;9.916;2022-08-19T03:30:43;18.10;99.90
17797;DHT22;55596;53.554;9.916;2022-08-19T03:33:10;18.30;99.90
17797;DHT22;55596;53.554;9.916;2022-08-19T03:35:38;18.10;99.90
17797;DHT22;55596;53.554;9.916;2022-08-19T03:38:05;18.20;99.90
17797;DHT22;55596;53.554;9.916;2022-08-19T03:40:36;18.20;99.90
17797;DHT22;55596;53.554;9.916;2022-08-19T03:43:04;18.10;99.90
17797;DHT22;55596;53.554;9.916;2022-08-19T03:45:31;18.10;99.90
17797;DHT22;55596;53.554;9.916;2022-08-19T03:47:58;18.00;99.90
17797;DHT22;55596;53.554;9.916;2022-08-19T03:50:25;18.10;99.90
17797;DHT22;55596;53.554;9.916;2022-08-19T03:52:52;18.00;99.90
17797;DHT22;55596;53.554;9.916;2022-08-19T03:55:19;18.10;99.90
17797;DHT22;55596;53.554;9.916;2022-08-19T03:57:46;18.10;99.90
17797;DHT22;55596;53.554;9.916;2022-08-19T04:00:16;18.00;99.90
17797;DHT22;55596;53.554;9.916;2022-08-19T04:02:43;18.00;99.90
17797;DHT22;55596;53.554;9.916;2022-08-19T04:05:10;18.10;99.90
17797;DHT22;55596;53.554;9.916;2022-08-19T04:07:38;14.50;99.90
17797;DHT22;55596;53.554;9.916;2022-08-19T04:10:05;18.10;99.90
17797;DHT22;55596;53.554;9.916;2022-08-19T04:12:32;18.10;99.90
17797;DHT22;55596;53.554;9.916;2022-08-19T04:14:59;18.00;99.90
17797;DHT22;55596;53.554;9.916;2022-08-19T04:17:27;18.10;99.90
17797;DHT22;55596;53.554;9.916;2022-08-19T04:19:54;18.10;99.90
17797;DHT22;55596;53.554;9.916;2022-08-19T04:22:21;18.10;99.90
17797;DHT22;55596;53.554;9.916;2022-08-19T04:24:48;18.10;99.90
17797;DHT22;55596;53.554;9.916;2022-08-19T04:27:14;18.30;99.90
17797;DHT22;55596;53.554;9.916;2022-08-19T04:29:42;18.00;99.90
17797;DHT22;55596;53.554;9.916;2022-08-19T04:32:08;18.00;99.90
17797;DHT22;55596;53.554;9.916;2022-08-19T04:34:37;18.00;99.90
17797;DHT22;55596;53.554;9.916;2022-08-19T04:37:05;18.00;99.90
17797;DHT22;55596;53.554;9.916;2022-08-19T04:39:37;18.00;99.90
17797;DHT22;55596;53.554;9.916;2022-08-19T04:42:22;18.00;99.90
17797;DHT22;55596;53.554;9.916;2022-08-19T04:45:07;17.90;99.90
17797;DHT22;55596;53.554;9.916;2022-08-19T04:47:36;18.00;99.90
17797;DHT22;55596;53.554;9.916;2022-08-19T04:50:05;18.00;99.90
17797;DHT22;55596;53.554;9.916;2022-08-19T04:52:32;18.00;99.90
17797;DHT22;55596;53.554;9.916;2022-08-19T04:54:59;19.10;99.90
17797;DHT22;55596;53.554;9.916;2022-08-19T04:57:26;18.10;99.90
17797;DHT22;55596;53.554;9.916;2022-08-19T04:59:54;17.90;99.90
17797;DHT22;55596;53.554;9.916;2022-08-19T05:02:21;18.00;99.90
17797;DHT22;55596;53.554;9.916;2022-08-19T05:04:50;17.90;99.90
17797;DHT22;55596;53.554;9.916;2022-08-19T05:07:18;17.80;99.90
17797;DHT22;55596;53.554;9.916;2022-08-19T05:09:45;17.90;99.90
17797;DHT22;55596;53.554;9.916;2022-08-19T05:12:12;18.00;99.90
17797;DHT22;55596;53.554;9.916;2022-08-19T05:14:38;17.80;99.90
17797;DHT22;55596;53.554;9.916;2022-08-19T05:17:05;17.90;99.90
17797;DHT22;55596;53.554;9.916;2022-08-19T05:19:32;18.20;99.90
17797;DHT22;55596;53.554;9.916;2022-08-19T05:22:12;17.90;99.90
17797;DHT22;55596;53.554;9.916;2022-08-19T05:25:02;18.00;99.90
17797;DHT22;55596;53.554;9.916;2022-08-19T05:27:30;17.70;99.90
17797;DHT22;55596;53.554;9.916;2022-08-19T05:29:57;17.80;99.90
17797;DHT22;55596;53.554;9.916;2022-08-19T05:32:25;17.70;99.90
17797;DHT22;55596;53.554;9.916;2022-08-19T05:34:52;17.70;99.90
17797;DHT22;55596;53.554;9.916;2022-08-19T05:37:19;17.90;99.90
17797;DHT22;55596;53.554;9.916;2022-08-19T05:39:46;17.80;99.90
17797;DHT22;55596;53.554;9.916;2022-08-19T05:42:16;17.80;99.90
17797;DHT22;55596;53.554;9.916;2022-08-19T05:44:44;17.90;99.90
17797;DHT22;55596;53.554;9.916;2022-08-19T05:47:12;17.90;99.90
17797;DHT22;55596;53.554;9.916;2022-08-19T05:49:40;17.90;99.90
17797;DHT22;55596;53.554;9.916;2022-08-19T05:52:09;17.80;99.90
17797;DHT22;55596;53.554;9.916;2022-08-19T05:54:37;17.80;99.90
17797;DHT22;55596;53.554;9.916;2022-08-19T05:57:06;17.90;99.90
17797;DHT22;55596;53.554;9.916;2022-08-19T05:59:34;17.80;99.90
17797;DHT22;55596;53.554;9.916;2022-08-19T06:02:03;17.90;99.90
17797;DHT22;55596;53.554;9.916;2022-08-19T06:04:30;17.90;99.90
17797;DHT22;55596;53.554;9.916;2022-08-19T06:06:57;18.00;99.90
17797;DHT22;55596;53.554;9.916;2022-08-19T06:09:24;17.90;99.90
17797;DHT22;55596;53.554;9.916;2022-08-19T06:11:53;18.00;99.90
17797;DHT22;55596;53.554;9.916;2022-08-19T06:14:22;18.20;99.90
17797;DHT22;55596;53.554;9.916;2022-08-19T06:16:51;17.40;99.90
17797;DHT22;55596;53.554;9.916;2022-08-19T06:19:21;18.10;99.90
17797;DHT22;55596;53.554;9.916;2022-08-19T06:21:50;18.20;99.90
17797;DHT22;55596;53.554;9.916;2022-08-19T06:24:20;18.20;99.90
17797;DHT22;55596;53.554;9.916;2022-08-19T06:26:49;18.10;99.90
17797;DHT22;55596;53.554;9.916;2022-08-19T06:29:18;18.20;99.90
17797;DHT22;55596;53.554;9.916;2022-08-19T06:31:47;18.30;99.90
17797;DHT22;55596;53.554;9.916;2022-08-19T06:34:16;18.20;99.90
17797;DHT22;55596;53.554;9.916;2022-08-19T06:36:46;18.30;99.90
17797;DHT22;55596;53.554;9.916;2022-08-19T06:39:14;18.40;99.90
17797;DHT22;55596;53.554;9.916;2022-08-19T06:41:43;18.20;99.90
17797;DHT22;55596;53.554;9.916;2022-08-19T06:44:10;18.20;99.90
17797;DHT22;55596;53.554;9.916;2022-08-19T06:46:38;18.30;99.90
17797;DHT22;55596;53.554;9.916;2022-08-19T06:49:06;18.30;99.90
17797;DHT22;55596;53.554;9.916;2022-08-19T06:51:37;18.50;99.90
17797;DHT22;55596;53.554;9.916;2022-08-19T06:54:05;18.40;99.90
17797;DHT22;55596;53.554;9.916;2022-08-19T06:56:32;18.40;99.90
17797;DHT22;55596;53.554;9.916;2022-08-19T06:59:00;18.50;99.90
17797;DHT22;55596;53.554;9.916;2022-08-19T07:01:28;18.60;99.90
17797;DHT22;55596;53.554;9.916;2022-08-19T07:03:54;18.60;99.90
17797;DHT22;55596;53.554;9.916;2022-08-19T07:06:21;18.60;99.90
17797;DHT22;55596;53.554;9.916;2022-08-19T07:08:50;18.50;99.90
17797;DHT22;55596;53.554;9.916;2022-08-19T07:11:18;18.60;99.90
17797;DHT22;55596;53.554;9.916;2022-08-19T07:13:46;18.70;99.90
17797;DHT22;55596;53.554;9.916;2022-08-19T07:16:17;18.60;99.90
17797;DHT22;55596;53.554;9.916;2022-08-19T07:18:45;18.90;99.90
17797;DHT22;55596;53.554;9.916;2022-08-19T07:21:14;18.90;99.90
17797;DHT22;55596;53.554;9.916;2022-08-19T07:23:42;19.10;99.90
17797;DHT22;55596;53.554;9.916;2022-08-19T07:26:14;19.10;99.90
17797;DHT22;55596;53.554;9.916;2022-08-19T07:28:41;19.40;99.90
17797;DHT22;55596;53.554;9.916;2022-08-19T07:31:11;19.70;99.90
17797;DHT22;55596;53.554;9.916;2022-08-19T07:33:39;19.60;99.90
17797;DHT22;55596;53.554;9.916;2022-08-19T07:36:09;19.40;99.90
17797;DHT22;55596;53.554;9.916;2022-08-19T07:38:37;19.70;99.90
17797;DHT22;55596;53.554;9.916;2022-08-19T07:41:06;19.50;99.90
17797;DHT22;55596;53.554;9.916;2022-08-19T07:43:35;19.60;99.90
17797;DHT22;55596;53.554;9.916;2022-08-19T07:46:02;19.80;99.90
17797;DHT22;55596;53.554;9.916;2022-08-19T07:48:29;19.50;99.90
17797;DHT22;55596;53.554;9.916;2022-08-19T07:50:59;19.60;99.90
17797;DHT22;55596;53.554;9.916;2022-08-19T07:53:28;19.80;99.90
17797;DHT22;55596;53.554;9.916;2022-08-19T07:55:56;20.10;99.90
17797;DHT22;55596;53.554;9.916;2022-08-19T07:58:24;20.00;99.90
17797;DHT22;55596;53.554;9.916;2022-08-19T08:00:54;18.90;99.90
17797;DHT22;55596;53.554;9.916;2022-08-19T08:03:22;20.20;99.90
17797;DHT22;55596;53.554;9.916;2022-08-19T08:06:10;20.00;99.90
17797;DHT22;55596;53.554;9.916;2022-08-19T08:08:54;19.80;99.90
17797;DHT22;55596;53.554;9.916;2022-08-19T08:11:48;20.20;99.90
17797;DHT22;55596;53.554;9.916;2022-08-19T08:14:18;19.70;99.90
17797;DHT22;55596;53.554;9.916;2022-08-19T08:16:46;20.40;99.90
17797;DHT22;55596;53.554;9.916;2022-08-19T08:19:17;19.70;99.90
17797;DHT22;55596;53.554;9.916;2022-08-19T08:21:45;19.70;99.90
17797;DHT22;55596;53.554;9.916;2022-08-19T08:24:12;18.20;99.90
17797;DHT22;55596;53.554;9.916;2022-08-19T08:26:38;19.60;99.90
17797;DHT22;55596;53.554;9.916;2022-08-19T08:29:06;19.70;99.90
17797;DHT22;55596;53.554;9.916;2022-08-19T08:31:39;19.60;99.90
17797;DHT22;55596;53.554;9.916;2022-08-19T08:34:07;19.90;99.90
17797;DHT22;55596;53.554;9.916;2022-08-19T08:36:36;20.10;99.90
17797;DHT22;55596;53.554;9.916;2022-08-19T08:39:07;20.10;99.90
17797;DHT22;55596;53.554;9.916;2022-08-19T08:41:40;20.20;99.90
17797;DHT22;55596;53.554;9.916;2022-08-19T08:44:13;20.20;99.90
17797;DHT22;55596;53.554;9.916;2022-08-19T08:46:47;20.50;99.90
17797;DHT22;55596;53.554;9.916;2022-08-19T08:49:26;20.80;99.90
17797;DHT22;55596;53.554;9.916;2022-08-19T08:52:00;20.90;99.90
17797;DHT22;55596;53.554;9.916;2022-08-19T08:54:33;21.10;99.90
17797;DHT22;55596;53.554;9.916;2022-08-19T08:57:04;21.10;99.90
17797;DHT22;55596;53.554;9.916;2022-08-19T08:59:36;21.10;99.90
17797;DHT22;55596;53.554;9.916;2022-08-19T09:02:05;20.90;99.90
17797;DHT22;55596;53.554;9.916;2022-08-19T09:04:34;21.00;99.90
17797;DHT22;55596;53.554;9.916;2022-08-19T09:07:20;20.70;99.90
17797;DHT22;55596;53.554;9.916;2022-08-19T09:09:51;20.70;99.90
17797;DHT22;55596;53.554;9.916;2022-08-19T09:12:24;20.90;99.90
17797;DHT22;55596;53.554;9.916;2022-08-19T09:14:56;21.10;99.90
17797;DHT22;55596;53.554;9.916;2022-08-19T09:17:27;21.40;99.90
17797;DHT22;55596;53.554;9.916;2022-08-19T09:20:00;21.50;99.90
17797;DHT22;55596;53.554;9.916;2022-08-19T09:22:30;21.70;99.90
17797;DHT22;55596;53.554;9.916;2022-08-19T09:24:57;21.90;99.90
17797;DHT22;55596;53.554;9.916;2022-08-19T09:27:26;22.70;99.90
17797;DHT22;55596;53.554;9.916;2022-08-19T09:29:54;22.20;99.90
17797;DHT22;55596;53.554;9.916;2022-08-19T09:32:21;22.10;99.90
17797;DHT22;55596;53.554;9.916;2022-08-19T09:34:48;21.90;99.90
17797;DHT22;55596;53.554;9.916;2022-08-19T09:37:17;21.50;99.90
17797;DHT22;55596;53.554;9.916;2022-08-19T09:39:44;21.80;99.90
17797;DHT22;55596;53.554;9.916;2022-08-19T09:42:11;21.90;99.90
17797;DHT22;55596;53.554;9.916;2022-08-19T09:44:39;21.80;99.90
17797;DHT22;55596;53.554;9.916;2022-08-19T09:47:07;22.00;99.90
17797;DHT22;55596;53.554;9.916;2022-08-19T09:49:34;22.10;99.90
17797;DHT22;55596;53.554;9.916;2022-08-19T09:52:01;22.00;99.90
17797;DHT22;55596;53.554;9.916;2022-08-19T09:54:29;21.60;99.90
17797;DHT22;55596;53.554;9.916;2022-08-19T09:56:58;21.30;99.90
17797;DHT22;55596;53.554;9.916;2022-08-19T09:59:26;21.60;99.90
17797;DHT22;55596;53.554;9.916;2022-08-19T10:01:53;21.30;99.90
17797;DHT22;55596;53.554;9.916;2022-08-19T10:04:20;20.90;99.90
17797;DHT22;55596;53.554;9.916;2022-08-19T10:06:48;21.60;99.90
17797;DHT22;55596;53.554;9.916;2022-08-19T10:09:17;21.40;99.90
17797;DHT22;55596;53.554;9.916;2022-08-19T10:11:46;21.50;99.90
17797;DHT22;55596;53.554;9.916;2022-08-19T10:14:15;21.40;99.90
17797;DHT22;55596;53.554;9.916;2022-08-19T10:16:42;21.40;99.90
17797;DHT22;55596;53.554;9.916;2022-08-19T10:19:09;21.50;99.90
17797;DHT22;55596;53.554;9.916;2022-08-19T10:21:36;21.50;99.90
17797;DHT22;55596;53.554;9.916;2022-08-19T10:24:05;21.40;99.90
17797;DHT22;55596;53.554;9.916;2022-08-19T10:26:35;21.30;99.90
17797;DHT22;55596;53.554;9.916;2022-08-19T10:29:04;21.20;99.90
17797;DHT22;55596;53.554;9.916;2022-08-19T10:31:33;21.00;99.90
17797;DHT22;55596;53.554;9.916;2022-08-19T10:34:00;21.10;99.90
17797;DHT22;55596;53.554;9.916;2022-08-19T10:36:30;21.00;99.90
17797;DHT22;55596;53.554;9.916;2022-08-19T10:38:59;20.90;99.90
17797;DHT22;55596;53.554;9.916;2022-08-19T10:41:30;21.30;99.90
17797;DHT22;55596;53.554;9.916;2022-08-19T10:43:59;20.90;99.90
17797;DHT22;55596;53.554;9.916;2022-08-19T10:46:28;21.10;99.90
17797;DHT22;55596;53.554;9.916;2022-08-19T10:48:56;21.30;99.90
17797;DHT22;55596;53.554;9.916;2022-08-19T10:51:23;21.40;99.90
17797;DHT22;55596;53.554;9.916;2022-08-19T10:54:08;21.60;99.90
17797;DHT22;55596;53.554;9.916;2022-08-19T10:56:35;21.40;99.90
17797;DHT22;55596;53.554;9.916;2022-08-19T10:59:22;21.70;99.90
17797;DHT22;55596;53.554;9.916;2022-08-19T11:01:51;21.80;99.90
17797;DHT22;55596;53.554;9.916;2022-08-19T11:04:19;21.80;99.90
17797;DHT22;55596;53.554;9.916;2022-08-19T11:06:48;22.10;99.90
17797;DHT22;55596;53.554;9.916;2022-08-19T11:09:18;22.10;99.90
17797;DHT22;55596;53.554;9.916;2022-08-19T11:11:45;22.30;99.90
17797;DHT22;55596;53.554;9.916;2022-08-19T11:14:14;22.10;99.90
17797;DHT22;55596;53.554;9.916;2022-08-19T11:16:42;22.30;99.90
17797;DHT22;55596;53.554;9.916;2022-08-19T11:19:11;22.70;99.90
17797;DHT22;55596;53.554;9.916;2022-08-19T11:21:40;23.30;99.90
17797;DHT22;55596;53.554;9.916;2022-08-19T11:24:10;23.90;99.90
17797;DHT22;55596;53.554;9.916;2022-08-19T11:26:38;24.30;99.90
17797;DHT22;55596;53.554;9.916;2022-08-19T11:29:09;24.10;99.90
17797;DHT22;55596;53.554;9.916;2022-08-19T11:31:40;23.80;99.90
17797;DHT22;55596;53.554;9.916;2022-08-19T11:34:10;24.40;99.90
17797;DHT22;55596;53.554;9.916;2022-08-19T11:36:40;24.70;99.90
17797;DHT22;55596;53.554;9.916;2022-08-19T11:39:08;25.20;99.90
17797;DHT22;55596;53.554;9.916;2022-08-19T11:41:36;25.50;99.90
17797;DHT22;55596;53.554;9.916;2022-08-19T11:44:03;25.60;99.90
17797;DHT22;55596;53.554;9.916;2022-08-19T11:46:37;25.40;99.90
17797;DHT22;55596;53.554;9.916;2022-08-19T11:49:05;25.60;99.90
17797;DHT22;55596;53.554;9.916;2022-08-19T11:51:35;25.50;99.90
17797;DHT22;55596;53.554;9.916;2022-08-19T11:54:04;24.50;99.90
17797;DHT22;55596;53.554;9.916;2022-08-19T11:56:32;24.80;99.90
17797;DHT22;55596;53.554;9.916;2022-08-19T11:59:00;24.10;99.90
17797;DHT22;55596;53.554;9.916;2022-08-19T12:01:28;23.50;99.90
17797;DHT22;55596;53.554;9.916;2022-08-19T12:03:56;23.10;99.90
17797;DHT22;55596;53.554;9.916;2022-08-19T12:06:25;23.00;99.90
17797;DHT22;55596;53.554;9.916;2022-08-19T12:08:56;23.10;99.90
17797;DHT22;55596;53.554;9.916;2022-08-19T12:11:23;23.50;99.90
17797;DHT22;55596;53.554;9.916;2022-08-19T12:13:51;24.00;99.90
17797;DHT22;55596;53.554;9.916;2022-08-19T12:16:22;24.40;99.90
17797;DHT22;55596;53.554;9.916;2022-08-19T12:18:51;24.70;99.90
17797;DHT22;55596;53.554;9.916;2022-08-19T12:21:20;25.10;99.90
17797;DHT22;55596;53.554;9.916;2022-08-19T12:23:49;26.20;99.90
17797;DHT22;55596;53.554;9.916;2022-08-19T12:26:18;27.10;99.90
17797;DHT22;55596;53.554;9.916;2022-08-19T12:28:45;28.10;99.90
17797;DHT22;55596;53.554;9.916;2022-08-19T12:31:13;28.90;99.90
17797;DHT22;55596;53.554;9.916;2022-08-19T12:33:41;29.80;99.90
17797;DHT22;55596;53.554;9.916;2022-08-19T12:36:11;30.00;99.90
17797;DHT22;55596;53.554;9.916;2022-08-19T12:38:39;29.30;99.90
17797;DHT22;55596;53.554;9.916;2022-08-19T12:41:10;29.20;99.90
17797;DHT22;55596;53.554;9.916;2022-08-19T12:43:39;28.90;99.90
17797;DHT22;55596;53.554;9.916;2022-08-19T12:46:06;29.50;99.90
17797;DHT22;55596;53.554;9.916;2022-08-19T12:48:34;29.90;99.90
17797;DHT22;55596;53.554;9.916;2022-08-19T12:51:06;30.50;99.90
17797;DHT22;55596;53.554;9.916;2022-08-19T12:53:33;30.30;99.90
17797;DHT22;55596;53.554;9.916;2022-08-19T12:56:01;30.10;99.90
17797;DHT22;55596;53.554;9.916;2022-08-19T12:58:29;29.10;99.90
17797;DHT22;55596;53.554;9.916;2022-08-19T13:00:58;29.90;99.90
17797;DHT22;55596;53.554;9.916;2022-08-19T13:03:25;30.20;99.90
17797;DHT22;55596;53.554;9.916;2022-08-19T13:05:55;29.30;99.90
17797;DHT22;55596;53.554;9.916;2022-08-19T13:08:22;28.70;99.90
17797;DHT22;55596;53.554;9.916;2022-08-19T13:10:49;28.20;99.90
17797;DHT22;55596;53.554;9.916;2022-08-19T13:13:16;28.20;99.90
17797;DHT22;55596;53.554;9.916;2022-08-19T13:15:45;28.50;99.90
17797;DHT22;55596;53.554;9.916;2022-08-19T13:18:15;28.60;99.90
17797;DHT22;55596;53.554;9.916;2022-08-19T13:20:42;28.60;99.90
17797;DHT22;55596;53.554;9.916;2022-08-19T13:23:10;28.50;99.90
17797;DHT22;55596;53.554;9.916;2022-08-19T13:25:37;28.20;99.90
17797;DHT22;55596;53.554;9.916;2022-08-19T13:28:04;27.90;99.90
17797;DHT22;55596;53.554;9.916;2022-08-19T13:30:32;27.70;99.90
17797;DHT22;55596;53.554;9.916;2022-08-19T13:33:18;27.40;99.90
17797;DHT22;55596;53.554;9.916;2022-08-19T13:35:48;27.00;99.90
17797;DHT22;55596;53.554;9.916;2022-08-19T13:38:18;27.60;99.90
17797;DHT22;55596;53.554;9.916;2022-08-19T13:40:46;27.60;99.90
17797;DHT22;55596;53.554;9.916;2022-08-19T13:43:16;27.50;99.90
17797;DHT22;55596;53.554;9.916;2022-08-19T13:45:43;27.80;99.90
17797;DHT22;55596;53.554;9.916;2022-08-19T13:48:10;27.90;99.90
17797;DHT22;55596;53.554;9.916;2022-08-19T13:50:42;27.40;99.90
17797;DHT22;55596;53.554;9.916;2022-08-19T13:53:10;27.20;99.90
17797;DHT22;55596;53.554;9.916;2022-08-19T13:55:38;27.20;99.90
17797;DHT22;55596;53.554;9.916;2022-08-19T13:58:05;26.90;99.90
17797;DHT22;55596;53.554;9.916;2022-08-19T14:00:34;26.50;99.90
17797;DHT22;55596;53.554;9.916;2022-08-19T14:03:02;27.00;99.90
17797;DHT22;55596;53.554;9.916;2022-08-19T14:05:30;27.30;99.90
17797;DHT22;55596;53.554;9.916;2022-08-19T14:07:59;27.70;99.90
17797;DHT22;55596;53.554;9.916;2022-08-19T14:10:27;28.10;99.90
17797;DHT22;55596;53.554;9.916;2022-08-19T14:12:59;28.50;99.90
17797;DHT22;55596;53.554;9.916;2022-08-19T14:15:28;28.40;99.90
17797;DHT22;55596;53.554;9.916;2022-08-19T14:17:55;28.50;99.90
17797;DHT22;55596;53.554;9.916;2022-08-19T14:20:23;28.80;99.90
17797;DHT22;55596;53.554;9.916;2022-08-19T14:22:50;29.60;99.90
17797;DHT22;55596;53.554;9.916;2022-08-19T14:25:21;30.20;99.90
17797;DHT22;55596;53.554;9.916;2022-08-19T14:27:48;30.10;99.90
17797;DHT22;55596;53.554;9.916;2022-08-19T14:30:17;30.30;99.90
17797;DHT22;55596;53.554;9.916;2022-08-19T14:32:45;30.50;99.90
17797;DHT22;55596;53.554;9.916;2022-08-19T14:35:13;30.10;99.90
17797;DHT22;55596;53.554;9.916;2022-08-19T14:37:41;29.70;99.90
17797;DHT22;55596;53.554;9.916;2022-08-19T14:40:10;30.60;99.90
17797;DHT22;55596;53.554;9.916;2022-08-19T14:42:39;28.70;99.90
17797;DHT22;55596;53.554;9.916;2022-08-19T14:45:07;28.70;99.90
17797;DHT22;55596;53.554;9.916;2022-08-19T14:47:34;28.50;99.90
17797;DHT22;55596;53.554;9.916;2022-08-19T14:50:04;27.90;99.90
17797;DHT22;55596;53.554;9.916;2022-08-19T14:52:32;28.20;99.90
17797;DHT22;55596;53.554;9.916;2022-08-19T14:54:58;27.80;99.90
17797;DHT22;55596;53.554;9.916;2022-08-19T14:57:26;28.00;99.90
17797;DHT22;55596;53.554;9.916;2022-08-19T14:59:55;27.60;99.90
17797;DHT22;55596;53.554;9.916;2022-08-19T15:02:22;27.40;99.90
17797;DHT22;55596;53.554;9.916;2022-08-19T15:04:49;27.10;99.90
17797;DHT22;55596;53.554;9.916;2022-08-19T15:07:17;26.90;99.90
17797;DHT22;55596;53.554;9.916;2022-08-19T15:09:44;27.00;99.90
17797;DHT22;55596;53.554;9.916;2022-08-19T15:12:11;27.60;99.90
17797;DHT22;55596;53.554;9.916;2022-08-19T15:14:38;28.70;99.90
17797;DHT22;55596;53.554;9.916;2022-08-19T15:17:08;29.40;99.90
17797;DHT22;55596;53.554;9.916;2022-08-19T15:19:35;29.80;99.90
17797;DHT22;55596;53.554;9.916;2022-08-19T15:22:02;29.90;99.90
17797;DHT22;55596;53.554;9.916;2022-08-19T15:24:29;30.00;99.90
17797;DHT22;55596;53.554;9.916;2022-08-19T15:26:57;29.80;99.90
17797;DHT22;55596;53.554;9.916;2022-08-19T15:29:24;29.80;99.90
17797;DHT22;55596;53.554;9.916;2022-08-19T15:31:53;30.00;99.90
17797;DHT22;55596;53.554;9.916;2022-08-19T15:34:23;30.30;99.90
17797;DHT22;55596;53.554;9.916;2022-08-19T15:36:52;29.80;99.90
17797;DHT22;55596;53.554;9.916;2022-08-19T15:39:19;30.10;99.90